Map

Track Data

SID SEASON NUMBER BASIN SUBBASIN NAME ISO_TIME NATURE LAT LON WMO_WIND WMO_PRES WMO_AGENCY TRACK_TYPE DIST2LAND LANDFALL IFLAG USA_AGENCY USA_ATCF_ID USA_LAT USA_LON USA_RECORD USA_STATUS USA_WIND USA_PRES USA_SSHS USA_R34_NE USA_R34_SE USA_R34_SW USA_R34_NW USA_R50_NE USA_R50_SE USA_R50_SW USA_R50_NW USA_R64_NE USA_R64_SE USA_R64_SW USA_R64_NW USA_POCI USA_ROCI USA_RMW USA_EYE TOKYO_LAT TOKYO_LON TOKYO_GRADE TOKYO_WIND TOKYO_PRES TOKYO_R50_DIR TOKYO_R50_LONG TOKYO_R50_SHORT TOKYO_R30_DIR TOKYO_R30_LONG TOKYO_R30_SHORT TOKYO_LAND CMA_LAT CMA_LON CMA_CAT CMA_WIND CMA_PRES HKO_LAT HKO_LON HKO_CAT HKO_WIND HKO_PRES NEWDELHI_LAT NEWDELHI_LON NEWDELHI_GRADE NEWDELHI_WIND NEWDELHI_PRES NEWDELHI_CI NEWDELHI_DP NEWDELHI_POCI REUNION_LAT REUNION_LON REUNION_TYPE REUNION_WIND REUNION_PRES REUNION_TNUM REUNION_CI REUNION_RMW REUNION_R34_NE REUNION_R34_SE REUNION_R34_SW REUNION_R34_NW REUNION_R50_NE REUNION_R50_SE REUNION_R50_SW REUNION_R50_NW REUNION_R64_NE REUNION_R64_SE REUNION_R64_SW REUNION_R64_NW BOM_LAT BOM_LON BOM_TYPE BOM_WIND BOM_PRES BOM_TNUM BOM_CI BOM_RMW BOM_R34_NE BOM_R34_SE BOM_R34_SW BOM_R34_NW BOM_R50_NE BOM_R50_SE BOM_R50_SW BOM_R50_NW BOM_R64_NE BOM_R64_SE BOM_R64_SW BOM_R64_NW BOM_ROCI BOM_POCI BOM_EYE BOM_POS_METHOD BOM_PRES_METHOD NADI_LAT NADI_LON NADI_CAT NADI_WIND NADI_PRES WELLINGTON_LAT WELLINGTON_LON WELLINGTON_WIND WELLINGTON_PRES DS824_LAT DS824_LON DS824_STAGE DS824_WIND DS824_PRES TD9636_LAT TD9636_LON TD9636_STAGE TD9636_WIND TD9636_PRES TD9635_LAT TD9635_LON TD9635_WIND TD9635_PRES TD9635_ROCI NEUMANN_LAT NEUMANN_LON NEUMANN_CLASS NEUMANN_WIND NEUMANN_PRES MLC_LAT MLC_LON MLC_CLASS MLC_WIND MLC_PRES USA_GUST BOM_GUST BOM_GUST_PER REUNION_GUST REUNION_GUST_PER USA_SEAHGT USA_SEARAD_NE USA_SEARAD_SE USA_SEARAD_SW USA_SEARAD_NW STORM_SPEED STORM_DIR
1984343S10132 1985 120 SI WA NOT_NAMED 1984-12-08 06:00:00 TS -10.0000 131.700 main 138 138 O___________O_ jtwc_sh SH041985 -10.0000 131.700 XX 25 -5 -10.0000 131.700 TC 25 7 272
1984343S10132 1985 120 SI WA NOT_NAMED 1984-12-08 09:00:00 TS -9.98509 131.335 main 145 145 P___________P_ SH041985 -9.98509 131.335 XX 27 -5 -9.98509 131.335 TC 27 7 270
1984343S10132 1985 120 SI WA NOT_NAMED 1984-12-08 12:00:00 TS -10.0000 131.000 main 146 134 O___________O_ jtwc_sh SH041985 -10.0000 131.000 XX 30 -5 -10.0000 131.000 TC 30 6 262
1984343S10132 1985 120 SI WA NOT_NAMED 1984-12-08 15:00:00 TS -10.0700 130.720 main 134 123 P___________P_ SH041985 -10.0700 130.720 XX 30 -5 -10.0700 130.720 TC 30 5 248
1984343S10132 1985 120 SI WA NOT_NAMED 1984-12-08 18:00:00 TS -10.2000 130.500 main 123 103 O___________O_ jtwc_sh SH041985 -10.2000 130.500 XX 30 -5 -10.2000 130.500 TC 30 5 232
1984343S10132 1985 120 SI WA NOT_NAMED 1984-12-08 21:00:00 TS -10.3850 130.305 main 103 84 P___________P_ SH041985 -10.3850 130.305 XX 30 -5 -10.3850 130.305 TC 30 5 216
1984343S10132 1985 120 SI WA NOT_NAMED 1984-12-09 00:00:00 TS -10.6000 130.200 main 84 64 O___________O_ jtwc_sh SH041985 -10.6000 130.200 XX 30 -5 -10.6000 130.200 TC 30 4 193
1984343S10132 1985 120 SI WA NOT_NAMED 1984-12-09 03:00:00 TS -10.8075 130.205 main 64 40 P___________P_ SH041985 -10.8075 130.205 XX 30 -5 -10.8075 130.205 TC 30 4 167
1984343S10132 1985 120 SI WA NOT_NAMED 1984-12-09 06:00:00 TS -11.0000 130.300 main 40 15 O___________O_ jtwc_sh SH041985 -11.0000 130.300 XX 30 -5 -11.0000 130.300 TC 30 4 150
1984343S10132 1985 120 SI WA NOT_NAMED 1984-12-09 09:00:00 TS -11.1725 130.420 main 15 0 P___________P_ SH041985 -11.1725 130.420 XX 30 -5 -11.1725 130.420 TC 30 4 136
1984343S10132 1985 120 SI WA NOT_NAMED 1984-12-09 12:00:00 TS -11.3000 130.600 main 0 0 O___________O_ jtwc_sh SH041985 -11.3000 130.600 XX 30 -5 -11.3000 130.600 TC 30 5 116
1984343S10132 1985 120 SI WA NOT_NAMED 1984-12-09 15:00:00 TS -11.3725 130.835 main 0 0 P___________P_ SH041985 -11.3725 130.835 XX 30 -5 -11.3725 130.835 TC 30 5 102
1984343S10132 1985 120 SI WA NOT_NAMED 1984-12-09 18:00:00 TS -11.4000 131.100 main 0 0 O___________O_ jtwc_sh SH041985 -11.4000 131.100 XX 30 -5 -11.4000 131.100 TC 30 5 94
1984343S10132 1985 120 SI WA NOT_NAMED 1984-12-09 21:00:00 TS -11.4075 131.343 main 0 0 P___________P_ SH041985 -11.4075 131.343 XX 30 -5 -11.4075 131.343 TC 30 5 90
1984343S10132 1985 120 SI WA NOT_NAMED 1984-12-10 00:00:00 TS -11.4000 131.600 main 15 10 O___________O_ jtwc_sh SH041985 -11.4000 131.600 XX 30 -5 -11.4000 131.600 TC 30 5 89
1984343S10132 1985 120 SI WA NOT_NAMED 1984-12-10 03:00:00 TS -11.4000 131.900 main 10 0 P___________P_ SH041985 -11.4000 131.900 XX 27 -5 -11.4000 131.900 TC 27 6 90
1984343S10132 1985 120 SI WA NOT_NAMED 1984-12-10 06:00:00 TS -11.4000 132.200 main 0 0 O___________O_ jtwc_sh SH041985 -11.4000 132.200 XX 25 -5 -11.4000 132.200 TC 25 5 88
1984343S10132 1985 120 SI WA NOT_NAMED 1984-12-10 09:00:00 TS -11.3849 132.450 main 0 0 P___________P_ SH041985 -11.3849 132.450 XX 25 -5 -11.3849 132.450 TC 25 5 90
1984343S10132 1985 120 SI WA NOT_NAMED 1984-12-10 12:00:00 TS -11.4000 132.700 main 10 0 O___________O_ jtwc_sh SH041985 -11.4000 132.700 XX 25 -5 -11.4000 132.700 TC 25 5 99
1984343S10132 1985 120 SI WA NOT_NAMED 1984-12-10 15:00:00 TS -11.4624 132.963 main 0 0 P___________P_ SH041985 -11.4624 132.963 XX 25 -5 -11.4624 132.963 TC 25 6 109
1984343S10132 1985 120 SI WA NOT_NAMED 1984-12-10 18:00:00 TS -11.6000 133.300 main 15 0 O___________O_ jtwc_sh SH041985 -11.6000 133.300 XX 25 -5 -11.6000 133.300 TC 25 8 115
1984343S10132 1985 120 SI WA NOT_NAMED 1984-12-10 21:00:00 TS -11.8199 133.740 main 0 0 P___________P_ SH041985 -11.8199 133.740 XX 25 -5 -11.8199 133.740 TC 25 11 117
1984343S10132 1985 120 SI WA NOT_NAMED 1984-12-11 00:00:00 TS -12.1000 134.300 main 0 0 O___________O_ jtwc_sh SH041985 -12.1000 134.300 XX 25 -5 -12.1000 134.300 TC 25 13 116
1984343S10132 1985 120 SI WA NOT_NAMED 1984-12-11 03:00:00 TS -12.4000 134.962 main 0 0 P___________P_ SH041985 -12.4000 134.962 XX 25 -5 -12.4000 134.962 TC 25 15 114
1984343S10132 1985 120 SP EA NOT_NAMED 1984-12-11 06:00:00 TS -12.7000 135.700 main 0 0 O___________O_ jtwc_sh SH041985 -12.7000 135.700 XX 25 -5 -12.7000 135.700 TC 25 16 111
1984343S10132 1985 120 SP EA NOT_NAMED 1984-12-11 09:00:00 TS -12.9574 136.450 main 0 0 P___________P_ SH041985 -12.9574 136.450 XX 25 -5 -12.9574 136.450 TC 25 15 109
1984343S10132 1985 120 SP EA NOT_NAMED 1984-12-11 12:00:00 TS -13.2000 137.200 main 58 58 O___________O_ jtwc_sh SH041985 -13.2000 137.200 XX 25 -5 -13.2000 137.200 TC 25 16 109
1984343S10132 1985 120 SP EA NOT_NAMED 1984-12-11 15:00:00 TS -13.4651 137.967 main 123 123 P___________P_ SH041985 -13.4651 137.967 XX 27 -5 -13.4651 137.967 TC 27 15 110
1984343S10132 1985 120 SP EA NOT_NAMED 1984-12-11 18:00:00 TS -13.7000 138.600 main 184 184 O___________O_ jtwc_sh SH041985 -13.7000 138.600 XX 30 -5 -13.7000 138.600 TC 30 11 112
1984343S10132 1985 120 SP EA NOT_NAMED 1984-12-11 21:00:00 TS -13.8722 139.005 main 220 220 P___________P_ SH041985 -13.8722 139.005 XX 32 -5 -13.8722 139.005 TC 32 7 117
1984343S10132 1985 120 SP EA NOT_NAMED 1984-12-12 00:00:00 TS -14.0000 139.200 main 239 238 O___________O_ jtwc_sh SH041985 -14.0000 139.200 XX 35 -5 -14.0000 139.200 TC 35 3 132
1984343S10132 1985 120 SP EA NOT_NAMED 1984-12-12 03:00:00 TS -14.0999 139.268 main 238 237 P___________P_ SH041985 -14.0999 139.268 XX 35 -5 -14.0999 139.268 TC 35 2 172
1984343S10132 1985 120 SP EA NOT_NAMED 1984-12-12 06:00:00 TS -14.2000 139.200 main 237 226 O___________O_ jtwc_sh SH041985 -14.2000 139.200 XX 35 -5 -14.2000 139.200 TC 35 3 219
1984343S10132 1985 120 SP EA NOT_NAMED 1984-12-12 09:00:00 TS -14.3350 139.073 main 226 205 P___________P_ SH041985 -14.3350 139.073 XX 35 -5 -14.3350 139.073 TC 35 4 224
1984343S10132 1985 120 SP EA NOT_NAMED 1984-12-12 12:00:00 TS -14.5000 138.900 main 205 188 O___________O_ jtwc_sh SH041985 -14.5000 138.900 XX 35 -5 -14.5000 138.900 TC 35 5 222
1984343S10132 1985 120 SP EA NOT_NAMED 1984-12-12 15:00:00 TS -14.6925 138.735 main 188 174 P___________P_ SH041985 -14.6925 138.735 XX 32 -5 -14.6925 138.735 TC 32 5 216
1984343S10132 1985 120 SP EA NOT_NAMED 1984-12-12 18:00:00 TS -14.9000 138.600 main 174 150 O___________O_ jtwc_sh SH041985 -14.9000 138.600 XX 30 -5 -14.9000 138.600 TC 30 5 205
1984343S10132 1985 120 SP EA NOT_NAMED 1984-12-12 21:00:00 TS -15.1000 138.535 main 150 132 P___________P_ SH041985 -15.1000 138.535 XX 30 -5 -15.1000 138.535 TC 30 4 193
1984343S10132 1985 120 SP EA NOT_NAMED 1984-12-13 00:00:00 TS -15.3000 138.500 main 132 116 O___________O_ jtwc_sh SH041985 -15.3000 138.500 XX 30 -5 -15.3000 138.500 TC 30 4 191
1984343S10132 1985 120 SP EA NOT_NAMED 1984-12-13 03:00:00 TS -15.5000 138.450 main 116 93 P___________P_ SH041985 -15.5000 138.450 XX 27 -5 -15.5000 138.450 TC 27 4 193
1984343S10132 1985 120 SP EA NOT_NAMED 1984-12-13 06:00:00 TS -15.7000 138.400 main 93 82 O___________O_ jtwc_sh SH041985 -15.7000 138.400 XX 25 -5 -15.7000 138.400 TC 25 4 193
1984343S10132 1985 120 SP EA NOT_NAMED 1984-12-13 09:00:00 TS -15.8925 138.350 main 72 61 P___________P_ SH041985 -15.8925 138.350 XX 25 -5 -15.8925 138.350 TC 25 4 193
1984343S10132 1985 120 SP EA NOT_NAMED 1984-12-13 12:00:00 TS -16.1000 138.300 main 61 46 O___________O_ jtwc_sh SH041985 -16.1000 138.300 XX 25 -5 -16.1000 138.300 TC 25 5 192
1984343S10132 1985 120 SP EA NOT_NAMED 1984-12-13 15:00:00 TS -16.3400 138.250 main 46 15 P___________P_ SH041985 -16.3400 138.250 XX 22 -5 -16.3400 138.250 TC 22 5 191
1984343S10132 1985 120 SP EA NOT_NAMED 1984-12-13 18:00:00 TS -16.6000 138.200 main 15 O___________O_ jtwc_sh SH041985 -16.6000 138.200 XX 20 -5 -16.6000 138.200 TC 20 5 188

About IBTrACS Database

This database is a web-friendly format of International Best Track Archive for Climate Stewardship (IBTrACS), a global best track data archive curated by NOAA dating back to 1842.

Updated: 2021-11-26